sensor_id;sensor_type;location;lat;lon;timestamp;pressure;altitude;pressure_sealevel;temperature;humidity
72038;BME280;59900;50.788;12.904;2023-05-08T00:00:15;98207.47;;;9.08;71.57
72038;BME280;59900;50.788;12.904;2023-05-08T00:02:40;98202.06;;;9.10;72.00
72038;BME280;59900;50.788;12.904;2023-05-08T00:05:06;98199.13;;;9.05;71.51
72038;BME280;59900;50.788;12.904;2023-05-08T00:07:31;98194.75;;;8.97;71.79
72038;BME280;59900;50.788;12.904;2023-05-08T00:09:57;98204.41;;;8.96;72.17
72038;BME280;59900;50.788;12.904;2023-05-08T00:12:22;98206.38;;;8.94;72.31
72038;BME280;59900;50.788;12.904;2023-05-08T00:14:47;98201.13;;;8.94;72.31
72038;BME280;59900;50.788;12.904;2023-05-08T00:17:12;98198.66;;;8.93;72.18
72038;BME280;59900;50.788;12.904;2023-05-08T00:19:38;98203.56;;;8.96;71.98
72038;BME280;59900;50.788;12.904;2023-05-08T00:22:03;98202.31;;;8.84;71.94
72038;BME280;59900;50.788;12.904;2023-05-08T00:24:28;98193.47;;;8.85;72.68
72038;BME280;59900;50.788;12.904;2023-05-08T00:26:53;98205.25;;;8.81;72.03
72038;BME280;59900;50.788;12.904;2023-05-08T00:29:19;98194.78;;;8.81;72.41
72038;BME280;59900;50.788;12.904;2023-05-08T00:31:44;98197.44;;;8.73;72.62
72038;BME280;59900;50.788;12.904;2023-05-08T00:34:09;98196.47;;;8.66;72.83
72038;BME280;59900;50.788;12.904;2023-05-08T00:36:34;98193.53;;;8.53;72.73
72038;BME280;59900;50.788;12.904;2023-05-08T00:39:00;98190.09;;;8.52;72.84
72038;BME280;59900;50.788;12.904;2023-05-08T00:41:25;98195.00;;;8.55;73.41
72038;BME280;59900;50.788;12.904;2023-05-08T00:43:50;98195.84;;;8.56;73.08
72038;BME280;59900;50.788;12.904;2023-05-08T00:46:16;98192.25;;;8.57;73.02
72038;BME280;59900;50.788;12.904;2023-05-08T00:48:42;98185.72;;;8.44;72.54
72038;BME280;59900;50.788;12.904;2023-05-08T00:51:08;98188.00;;;8.48;72.95
72038;BME280;59900;50.788;12.904;2023-05-08T00:53:37;98191.44;;;8.48;72.99
72038;BME280;59900;50.788;12.904;2023-05-08T00:56:04;98200.94;;;8.41;73.05
72038;BME280;59900;50.788;12.904;2023-05-08T00:58:31;98184.91;;;8.36;73.00
72038;BME280;59900;50.788;12.904;2023-05-08T01:00:56;98194.56;;;8.35;73.46
72038;BME280;59900;50.788;12.904;2023-05-08T01:03:23;98182.78;;;8.39;73.30
72038;BME280;59900;50.788;12.904;2023-05-08T01:05:49;98180.81;;;8.33;73.20
72038;BME280;59900;50.788;12.904;2023-05-08T01:08:14;98184.56;;;8.31;73.27
72038;BME280;59900;50.788;12.904;2023-05-08T01:10:48;98188.19;;;8.30;73.44
72038;BME280;59900;50.788;12.904;2023-05-08T01:16:16;98184.72;;;8.21;73.68
72038;BME280;59900;50.788;12.904;2023-05-08T01:18:49;98190.78;;;8.14;73.53
72038;BME280;59900;50.788;12.904;2023-05-08T01:21:30;98185.41;;;8.07;74.10
72038;BME280;59900;50.788;12.904;2023-05-08T01:30:08;98180.31;;;8.14;74.10
72038;BME280;59900;50.788;12.904;2023-05-08T01:32:41;98173.94;;;8.08;73.86
72038;BME280;59900;50.788;12.904;2023-05-08T01:35:23;98177.06;;;8.04;74.32
72038;BME280;59900;50.788;12.904;2023-05-08T01:37:58;98173.28;;;7.98;74.31
72038;BME280;59900;50.788;12.904;2023-05-08T01:40:31;98174.25;;;7.97;74.50
72038;BME280;59900;50.788;12.904;2023-05-08T01:43:11;98176.25;;;7.95;74.64
72038;BME280;59900;50.788;12.904;2023-05-08T01:45:39;98173.44;;;7.97;74.78
72038;BME280;59900;50.788;12.904;2023-05-08T01:48:23;98171.47;;;7.99;74.84
72038;BME280;59900;50.788;12.904;2023-05-08T01:50:55;98172.97;;;8.01;74.16
72038;BME280;59900;50.788;12.904;2023-05-08T01:53:25;98174.41;;;7.96;74.67
72038;BME280;59900;50.788;12.904;2023-05-08T01:55:56;98179.31;;;7.90;74.70
72038;BME280;59900;50.788;12.904;2023-05-08T01:58:23;98179.00;;;7.77;75.27
72038;BME280;59900;50.788;12.904;2023-05-08T02:00:49;98184.38;;;7.76;75.46
72038;BME280;59900;50.788;12.904;2023-05-08T02:03:16;98183.91;;;7.80;75.51
72038;BME280;59900;50.788;12.904;2023-05-08T02:05:41;98185.53;;;7.73;75.64
72038;BME280;59900;50.788;12.904;2023-05-08T02:08:10;98181.78;;;7.68;75.77
72038;BME280;59900;50.788;12.904;2023-05-08T02:10:38;98188.97;;;7.66;75.99
72038;BME280;59900;50.788;12.904;2023-05-08T02:13:05;98189.81;;;7.74;75.96
72038;BME280;59900;50.788;12.904;2023-05-08T02:15:31;98199.94;;;7.77;75.59
72038;BME280;59900;50.788;12.904;2023-05-08T02:18:01;98192.09;;;7.77;75.70
72038;BME280;59900;50.788;12.904;2023-05-08T02:20:28;98193.25;;;7.75;75.58
72038;BME280;59900;50.788;12.904;2023-05-08T02:22:56;98194.53;;;7.71;75.78
72038;BME280;59900;50.788;12.904;2023-05-08T02:25:21;98193.69;;;7.62;76.31
72038;BME280;59900;50.788;12.904;2023-05-08T02:27:48;98188.47;;;7.62;76.50
72038;BME280;59900;50.788;12.904;2023-05-08T02:30:15;98189.13;;;7.64;76.48
72038;BME280;59900;50.788;12.904;2023-05-08T02:32:45;98196.81;;;7.66;76.25
72038;BME280;59900;50.788;12.904;2023-05-08T02:35:12;98193.69;;;7.62;76.20
72038;BME280;59900;50.788;12.904;2023-05-08T02:37:41;98198.41;;;7.51;76.27
72038;BME280;59900;50.788;12.904;2023-05-08T02:40:09;98194.16;;;7.58;76.77
72038;BME280;59900;50.788;12.904;2023-05-08T02:42:35;98194.34;;;7.64;76.21
72038;BME280;59900;50.788;12.904;2023-05-08T02:45:01;98192.06;;;7.61;76.01
72038;BME280;59900;50.788;12.904;2023-05-08T02:47:36;98194.16;;;7.50;76.03
72038;BME280;59900;50.788;12.904;2023-05-08T02:50:09;98192.56;;;7.57;76.14
72038;BME280;59900;50.788;12.904;2023-05-08T02:52:44;98200.88;;;7.60;76.14
72038;BME280;59900;50.788;12.904;2023-05-08T03:00:26;98194.34;;;7.64;75.48
72038;BME280;59900;50.788;12.904;2023-05-08T03:02:59;98201.22;;;7.57;75.78
72038;BME280;59900;50.788;12.904;2023-05-08T03:05:29;98197.47;;;7.60;76.00
72038;BME280;59900;50.788;12.904;2023-05-08T03:07:58;98202.69;;;7.60;75.70
72038;BME280;59900;50.788;12.904;2023-05-08T03:10:28;98199.25;;;7.59;75.67
72038;BME280;59900;50.788;12.904;2023-05-08T03:12:56;98199.25;;;7.51;75.57
72038;BME280;59900;50.788;12.904;2023-05-08T03:15:26;98206.09;;;7.44;75.56
72038;BME280;59900;50.788;12.904;2023-05-08T03:17:55;98212.59;;;7.40;75.85
72038;BME280;59900;50.788;12.904;2023-05-08T03:20:21;98210.34;;;7.45;76.29
72038;BME280;59900;50.788;12.904;2023-05-08T03:22:49;98207.72;;;7.45;76.11
72038;BME280;59900;50.788;12.904;2023-05-08T03:25:17;98203.47;;;7.44;76.08
72038;BME280;59900;50.788;12.904;2023-05-08T03:27:44;98206.41;;;7.49;76.20
72038;BME280;59900;50.788;12.904;2023-05-08T03:30:10;98202.31;;;7.47;75.34
72038;BME280;59900;50.788;12.904;2023-05-08T03:32:37;98198.06;;;7.46;75.49
72038;BME280;59900;50.788;12.904;2023-05-08T03:35:04;98201.81;;;7.43;75.86
72038;BME280;59900;50.788;12.904;2023-05-08T03:37:30;98209.34;;;7.46;75.51
72038;BME280;59900;50.788;12.904;2023-05-08T03:39:55;98206.72;;;7.46;75.34
72038;BME280;59900;50.788;12.904;2023-05-08T03:42:22;98205.25;;;7.44;75.91
72038;BME280;59900;50.788;12.904;2023-05-08T03:44:51;98206.09;;;7.44;75.64
72038;BME280;59900;50.788;12.904;2023-05-08T03:47:17;98205.13;;;7.45;75.65
72038;BME280;59900;50.788;12.904;2023-05-08T03:49:47;98205.59;;;7.49;75.53
72038;BME280;59900;50.788;12.904;2023-05-08T03:52:14;98203.66;;;7.51;75.52
72038;BME280;59900;50.788;12.904;2023-05-08T03:54:39;98209.03;;;7.49;75.77
72038;BME280;59900;50.788;12.904;2023-05-08T03:57:05;98214.13;;;7.51;75.64
72038;BME280;59900;50.788;12.904;2023-05-08T04:02:20;98214.13;;;7.51;75.37
72038;BME280;59900;50.788;12.904;2023-05-08T04:04:54;98209.03;;;7.49;75.15
72038;BME280;59900;50.788;12.904;2023-05-08T04:07:45;98212.78;;;7.55;75.36
72038;BME280;59900;50.788;12.904;2023-05-08T04:10:15;98219.84;;;7.54;75.29
72038;BME280;59900;50.788;12.904;2023-05-08T04:13:04;98217.56;;;7.59;75.07
72038;BME280;59900;50.788;12.904;2023-05-08T04:15:33;98224.25;;;7.62;74.98
72038;BME280;59900;50.788;12.904;2023-05-08T04:18:11;98225.09;;;7.62;74.83
72038;BME280;59900;50.788;12.904;2023-05-08T04:20:40;98225.09;;;7.62;74.33
72038;BME280;59900;50.788;12.904;2023-05-08T04:23:05;98225.09;;;7.62;74.74
72038;BME280;59900;50.788;12.904;2023-05-08T04:25:35;98230.66;;;7.67;74.70
72038;BME280;59900;50.788;12.904;2023-05-08T04:28:01;98234.59;;;7.71;75.05
72038;BME280;59900;50.788;12.904;2023-05-08T04:30:27;98226.75;;;7.71;74.83
72038;BME280;59900;50.788;12.904;2023-05-08T04:32:53;98236.38;;;7.79;75.00
72038;BME280;59900;50.788;12.904;2023-05-08T04:35:18;98230.00;;;7.81;74.14
72038;BME280;59900;50.788;12.904;2023-05-08T04:37:44;98243.91;;;7.90;74.43
72038;BME280;59900;50.788;12.904;2023-05-08T04:40:10;98239.38;;;7.92;73.72
72038;BME280;59900;50.788;12.904;2023-05-08T04:42:35;98243.47;;;7.95;73.48
72038;BME280;59900;50.788;12.904;2023-05-08T04:45:03;98251.81;;;7.98;73.67
72038;BME280;59900;50.788;12.904;2023-05-08T04:47:28;98247.22;;;8.00;73.67
72038;BME280;59900;50.788;12.904;2023-05-08T04:49:53;98254.91;;;8.02;73.21
72038;BME280;59900;50.788;12.904;2023-05-08T04:52:20;98246.06;;;8.03;72.91
72038;BME280;59900;50.788;12.904;2023-05-08T04:54:45;98255.06;;;8.08;72.86
72038;BME280;59900;50.788;12.904;2023-05-08T04:57:10;98249.19;;;8.14;72.93
72038;BME280;59900;50.788;12.904;2023-05-08T04:59:35;98255.91;;;8.17;72.17
72038;BME280;59900;50.788;12.904;2023-05-08T05:02:01;98253.94;;;8.19;72.39
72038;BME280;59900;50.788;12.904;2023-05-08T05:04:26;98259.50;;;8.24;72.99
72038;BME280;59900;50.788;12.904;2023-05-08T05:06:52;98259.19;;;8.27;72.31
72038;BME280;59900;50.788;12.904;2023-05-08T05:09:17;98265.41;;;8.34;72.18
72038;BME280;59900;50.788;12.904;2023-05-08T05:11:42;98264.13;;;8.38;72.06
72038;BME280;59900;50.788;12.904;2023-05-08T05:14:08;98268.84;;;8.42;72.22
72038;BME280;59900;50.788;12.904;2023-05-08T05:16:33;98266.72;;;8.46;72.10
72038;BME280;59900;50.788;12.904;2023-05-08T05:18:59;98268.72;;;8.36;70.79
72038;BME280;59900;50.788;12.904;2023-05-08T05:21:24;98258.88;;;8.38;71.50
72038;BME280;59900;50.788;12.904;2023-05-08T05:23:50;98262.81;;;8.42;71.36
72038;BME280;59900;50.788;12.904;2023-05-08T05:26:15;98271.97;;;8.46;71.75
72038;BME280;59900;50.788;12.904;2023-05-08T05:28:40;98271.81;;;8.56;71.27
72038;BME280;59900;50.788;12.904;2023-05-08T05:31:06;98267.69;;;8.61;70.61
72038;BME280;59900;50.788;12.904;2023-05-08T05:33:31;98267.22;;;8.58;71.02
72038;BME280;59900;50.788;12.904;2023-05-08T05:35:56;98273.13;;;8.60;70.68
72038;BME280;59900;50.788;12.904;2023-05-08T05:38:22;98270.50;;;8.60;70.62
72038;BME280;59900;50.788;12.904;2023-05-08T05:40:48;98274.06;;;8.67;70.77
72038;BME280;59900;50.788;12.904;2023-05-08T05:43:13;98274.88;;;8.75;70.64
72038;BME280;59900;50.788;12.904;2023-05-08T05:45:38;98276.19;;;8.79;70.36
72038;BME280;59900;50.788;12.904;2023-05-08T05:48:04;98284.22;;;8.86;70.03
72038;BME280;59900;50.788;12.904;2023-05-08T05:50:29;98279.94;;;8.85;69.49
72038;BME280;59900;50.788;12.904;2023-05-08T05:52:55;98281.28;;;8.89;69.93
72038;BME280;59900;50.788;12.904;2023-05-08T05:55:20;98286.31;;;8.98;69.78
72038;BME280;59900;50.788;12.904;2023-05-08T05:57:46;98287.63;;;9.02;69.55
72038;BME280;59900;50.788;12.904;2023-05-08T06:00:12;98292.53;;;9.06;69.32
72038;BME280;59900;50.788;12.904;2023-05-08T06:02:37;98297.75;;;9.14;69.57
72038;BME280;59900;50.788;12.904;2023-05-08T06:05:03;98290.84;;;9.21;69.02
72038;BME280;59900;50.788;12.904;2023-05-08T06:07:29;98290.50;;;9.24;68.33
72038;BME280;59900;50.788;12.904;2023-05-08T06:09:54;98289.34;;;9.26;68.91
72038;BME280;59900;50.788;12.904;2023-05-08T06:12:20;98293.44;;;9.29;68.10
72038;BME280;59900;50.788;12.904;2023-05-08T06:14:46;98290.66;;;9.22;67.96
72038;BME280;59900;50.788;12.904;2023-05-08T06:17:11;98295.78;;;9.16;67.79
72038;BME280;59900;50.788;12.904;2023-05-08T06:19:36;98303.78;;;9.22;68.13
72038;BME280;59900;50.788;12.904;2023-05-08T06:22:02;98300.19;;;9.23;68.27
72038;BME280;59900;50.788;12.904;2023-05-08T06:24:27;98298.72;;;9.21;67.65
72038;BME280;59900;50.788;12.904;2023-05-08T06:26:53;98302.94;;;9.22;68.03
72038;BME280;59900;50.788;12.904;2023-05-08T06:29:18;98299.66;;;9.28;67.97
72038;BME280;59900;50.788;12.904;2023-05-08T06:31:43;98299.84;;;9.26;67.40
72038;BME280;59900;50.788;12.904;2023-05-08T06:34:09;98305.56;;;9.30;68.15
72038;BME280;59900;50.788;12.904;2023-05-08T06:36:34;98305.72;;;9.36;67.84
72038;BME280;59900;50.788;12.904;2023-05-08T06:39:02;98302.41;;;9.42;67.43
72038;BME280;59900;50.788;12.904;2023-05-08T06:41:28;98297.47;;;9.47;67.99
72038;BME280;59900;50.788;12.904;2023-05-08T06:43:53;98304.00;;;9.51;67.37
72038;BME280;59900;50.788;12.904;2023-05-08T06:46:18;98304.97;;;9.58;67.71
72038;BME280;59900;50.788;12.904;2023-05-08T06:48:44;98310.34;;;9.65;67.36
72038;BME280;59900;50.788;12.904;2023-05-08T06:51:10;98309.00;;;9.69;67.32
72038;BME280;59900;50.788;12.904;2023-05-08T06:53:35;98313.56;;;9.75;67.49
72038;BME280;59900;50.788;12.904;2023-05-08T06:56:00;98303.06;;;9.75;66.02
72038;BME280;59900;50.788;12.904;2023-05-08T06:58:26;98304.78;;;9.68;65.65
72038;BME280;59900;50.788;12.904;2023-05-08T07:00:51;98293.00;;;9.56;66.33
72038;BME280;59900;50.788;12.904;2023-05-08T07:03:16;98308.06;;;9.62;66.58
72038;BME280;59900;50.788;12.904;2023-05-08T07:05:42;98306.03;;;9.72;66.80
72038;BME280;59900;50.788;12.904;2023-05-08T07:08:07;98310.09;;;9.83;66.69
72038;BME280;59900;50.788;12.904;2023-05-08T07:10:33;98302.81;;;9.93;66.44
72038;BME280;59900;50.788;12.904;2023-05-08T07:12:58;98304.94;;;9.97;65.51
72038;BME280;59900;50.788;12.904;2023-05-08T07:15:23;98305.03;;;10.04;65.88
72038;BME280;59900;50.788;12.904;2023-05-08T07:17:48;98306.97;;;10.10;65.12
72038;BME280;59900;50.788;12.904;2023-05-08T07:20:14;98309.28;;;10.13;63.55
72038;BME280;59900;50.788;12.904;2023-05-08T07:22:39;98304.84;;;10.13;63.58
72038;BME280;59900;50.788;12.904;2023-05-08T07:25:05;98308.94;;;10.16;63.89
72038;BME280;59900;50.788;12.904;2023-05-08T07:27:30;98314.53;;;10.13;62.76
72038;BME280;59900;50.788;12.904;2023-05-08T07:29:55;98314.69;;;10.11;62.71
72038;BME280;59900;50.788;12.904;2023-05-08T07:32:22;98312.75;;;10.05;62.94
72038;BME280;59900;50.788;12.904;2023-05-08T07:34:48;98309.16;;;10.06;63.27
72038;BME280;59900;50.788;12.904;2023-05-08T07:37:14;98312.06;;;10.11;63.74
72038;BME280;59900;50.788;12.904;2023-05-08T07:39:39;98315.19;;;10.15;63.08
72038;BME280;59900;50.788;12.904;2023-05-08T07:42:04;98320.22;;;10.25;62.26
72038;BME280;59900;50.788;12.904;2023-05-08T07:44:30;98315.75;;;10.33;62.74
72038;BME280;59900;50.788;12.904;2023-05-08T07:46:57;98318.00;;;10.36;61.29
72038;BME280;59900;50.788;12.904;2023-05-08T07:49:22;98329.38;;;10.29;60.81
72038;BME280;59900;50.788;12.904;2023-05-08T07:51:47;98320.69;;;10.28;61.28
72038;BME280;59900;50.788;12.904;2023-05-08T07:54:13;98321.16;;;10.32;61.77
72038;BME280;59900;50.788;12.904;2023-05-08T07:56:38;98318.81;;;10.37;61.18
72038;BME280;59900;50.788;12.904;2023-05-08T07:59:03;98331.72;;;10.46;61.63
72038;BME280;59900;50.788;12.904;2023-05-08T08:01:29;98320.16;;;10.55;60.72
72038;BME280;59900;50.788;12.904;2023-05-08T08:03:54;98319.91;;;10.65;60.91
72038;BME280;59900;50.788;12.904;2023-05-08T08:06:19;98311.41;;;10.78;61.61
72038;BME280;59900;50.788;12.904;2023-05-08T08:08:44;98311.44;;;10.92;61.62
72038;BME280;59900;50.788;12.904;2023-05-08T08:11:10;98318.81;;;10.97;59.75
72038;BME280;59900;50.788;12.904;2023-05-08T08:13:35;98314.38;;;10.97;59.45
72038;BME280;59900;50.788;12.904;2023-05-08T08:16:00;98314.66;;;11.02;59.47
72038;BME280;59900;50.788;12.904;2023-05-08T08:18:28;98318.19;;;11.09;59.81
72038;BME280;59900;50.788;12.904;2023-05-08T08:20:53;98299.97;;;11.22;60.31
72038;BME280;59900;50.788;12.904;2023-05-08T08:23:18;98310.03;;;11.34;60.12
72038;BME280;59900;50.788;12.904;2023-05-08T08:25:43;98310.75;;;11.42;59.94
72038;BME280;59900;50.788;12.904;2023-05-08T08:28:09;98307.84;;;11.52;59.70
72038;BME280;59900;50.788;12.904;2023-05-08T08:30:34;98302.13;;;11.63;59.34
72038;BME280;59900;50.788;12.904;2023-05-08T08:32:59;98300.22;;;11.71;58.88
72038;BME280;59900;50.788;12.904;2023-05-08T08:35:27;98297.31;;;11.81;59.38
72038;BME280;59900;50.788;12.904;2023-05-08T08:37:54;98303.28;;;11.90;58.97
72038;BME280;59900;50.788;12.904;2023-05-08T08:40:19;98300.34;;;11.99;58.24
72038;BME280;59900;50.788;12.904;2023-05-08T08:42:45;98301.50;;;12.11;58.42
72038;BME280;59900;50.788;12.904;2023-05-08T08:45:11;98301.00;;;12.22;57.70
72038;BME280;59900;50.788;12.904;2023-05-08T08:47:36;98296.63;;;12.29;57.64
72038;BME280;59900;50.788;12.904;2023-05-08T08:50:02;98296.13;;;12.41;57.48
72038;BME280;59900;50.788;12.904;2023-05-08T08:52:51;98302.31;;;12.54;56.84
72038;BME280;59900;50.788;12.904;2023-05-08T08:55:21;98303.66;;;12.65;56.82
72038;BME280;59900;50.788;12.904;2023-05-08T08:57:58;98299.91;;;12.80;57.32
72038;BME280;59900;50.788;12.904;2023-05-08T09:00:27;98288.63;;;12.93;55.65
72038;BME280;59900;50.788;12.904;2023-05-08T09:02:53;98300.91;;;13.07;56.02
72038;BME280;59900;50.788;12.904;2023-05-08T09:05:21;98296.16;;;13.17;55.48
72038;BME280;59900;50.788;12.904;2023-05-08T09:07:46;98295.59;;;13.28;55.93
72038;BME280;59900;50.788;12.904;2023-05-08T09:10:12;98290.97;;;13.37;55.16
72038;BME280;59900;50.788;12.904;2023-05-08T09:12:40;98285.53;;;13.45;53.63
72038;BME280;59900;50.788;12.904;2023-05-08T09:15:05;98283.94;;;13.51;51.54
72038;BME280;59900;50.788;12.904;2023-05-08T09:17:31;98285.00;;;13.63;52.77
72038;BME280;59900;50.788;12.904;2023-05-08T09:19:56;98286.84;;;13.69;48.82
72038;BME280;59900;50.788;12.904;2023-05-08T09:22:21;98284.25;;;13.75;48.60
72038;BME280;59900;50.788;12.904;2023-05-08T09:24:59;98285.88;;;13.83;47.57
72038;BME280;59900;50.788;12.904;2023-05-08T09:27:26;98280.22;;;13.86;46.77
72038;BME280;59900;50.788;12.904;2023-05-08T09:32:24;98286.94;;;13.88;45.92
72038;BME280;59900;50.788;12.904;2023-05-08T09:34:52;98283.31;;;13.96;46.69
72038;BME280;59900;50.788;12.904;2023-05-08T09:37:18;98283.31;;;14.02;47.33
72038;BME280;59900;50.788;12.904;2023-05-08T09:39:43;98283.75;;;14.13;46.92
72038;BME280;59900;50.788;12.904;2023-05-08T09:42:11;98286.63;;;14.18;47.17
72038;BME280;59900;50.788;12.904;2023-05-08T09:44:50;98283.16;;;14.24;45.86
72038;BME280;59900;50.788;12.904;2023-05-08T09:50:09;98277.09;;;14.36;44.62
72038;BME280;59900;50.788;12.904;2023-05-08T09:52:36;98283.84;;;14.45;43.95
72038;BME280;59900;50.788;12.904;2023-05-08T09:55:07;98288.50;;;14.56;43.14
72038;BME280;59900;50.788;12.904;2023-05-08T09:57:35;98289.34;;;14.64;42.50
72038;BME280;59900;50.788;12.904;2023-05-08T10:00:06;98285.25;;;14.74;41.89
72038;BME280;59900;50.788;12.904;2023-05-08T10:02:34;98287.50;;;14.84;42.67
72038;BME280;59900;50.788;12.904;2023-05-08T10:04:59;98283.63;;;14.99;41.96
72038;BME280;59900;50.788;12.904;2023-05-08T10:07:33;98285.66;;;15.10;40.31
72038;BME280;59900;50.788;12.904;2023-05-08T10:10:05;98290.72;;;15.19;40.44
72038;BME280;59900;50.788;12.904;2023-05-08T10:12:31;98284.81;;;15.23;40.17
72038;BME280;59900;50.788;12.904;2023-05-08T10:14:57;98276.66;;;15.31;39.87
72038;BME280;59900;50.788;12.904;2023-05-08T10:17:37;98287.59;;;15.41;39.77
72038;BME280;59900;50.788;12.904;2023-05-08T10:20:06;98279.50;;;15.49;40.29
72038;BME280;59900;50.788;12.904;2023-05-08T10:22:35;98274.38;;;15.54;38.92
72038;BME280;59900;50.788;12.904;2023-05-08T10:25:02;98287.63;;;15.54;40.13
72038;BME280;59900;50.788;12.904;2023-05-08T10:27:34;98280.66;;;15.66;40.13
72038;BME280;59900;50.788;12.904;2023-05-08T10:30:03;98278.97;;;15.79;39.88
72038;BME280;59900;50.788;12.904;2023-05-08T10:32:34;98270.97;;;15.85;39.32
72038;BME280;59900;50.788;12.904;2023-05-08T10:35:02;98268.69;;;15.95;40.43
72038;BME280;59900;50.788;12.904;2023-05-08T10:37:28;98275.63;;;15.96;38.49
72038;BME280;59900;50.788;12.904;2023-05-08T10:39:54;98271.94;;;15.97;37.65
72038;BME280;59900;50.788;12.904;2023-05-08T10:42:21;98279.28;;;15.95;36.92
72038;BME280;59900;50.788;12.904;2023-05-08T10:44:46;98278.28;;;15.96;36.85
72038;BME280;59900;50.788;12.904;2023-05-08T10:47:26;98280.09;;;15.96;36.87
72038;BME280;59900;50.788;12.904;2023-05-08T10:50:00;98277.63;;;16.01;37.24
72038;BME280;59900;50.788;12.904;2023-05-08T10:52:58;98271.06;;;16.10;38.13
72038;BME280;59900;50.788;12.904;2023-05-08T10:55:32;98261.38;;;16.22;38.20
72038;BME280;59900;50.788;12.904;2023-05-08T10:58:01;98267.84;;;16.33;38.21
72038;BME280;59900;50.788;12.904;2023-05-08T11:01:16;98269.44;;;16.40;37.78
72038;BME280;59900;50.788;12.904;2023-05-08T11:03:16;98258.56;;;16.48;37.11
72038;BME280;59900;50.788;12.904;2023-05-08T11:05:46;98263.84;;;16.55;36.43
72038;BME280;59900;50.788;12.904;2023-05-08T11:08:25;98256.63;;;16.62;36.20
72038;BME280;59900;50.788;12.904;2023-05-08T11:13:27;98245.69;;;16.76;35.98
72038;BME280;59900;50.788;12.904;2023-05-08T11:15:54;98255.13;;;16.72;31.29
72038;BME280;59900;50.788;12.904;2023-05-08T11:18:21;98248.84;;;16.67;31.30
72038;BME280;59900;50.788;12.904;2023-05-08T11:20:57;98248.50;;;16.57;31.78
72038;BME280;59900;50.788;12.904;2023-05-08T11:23:26;98250.75;;;16.53;32.70
72038;BME280;59900;50.788;12.904;2023-05-08T11:26:15;98250.53;;;16.61;33.28
72038;BME280;59900;50.788;12.904;2023-05-08T11:31:18;98254.28;;;16.78;32.38
72038;BME280;59900;50.788;12.904;2023-05-08T11:33:44;98244.75;;;16.89;32.67
72038;BME280;59900;50.788;12.904;2023-05-08T11:38:40;98249.25;;;16.89;30.99
72038;BME280;59900;50.788;12.904;2023-05-08T11:41:09;98246.78;;;16.94;30.68
72038;BME280;59900;50.788;12.904;2023-05-08T11:43:47;98247.38;;;16.96;31.11
72038;BME280;59900;50.788;12.904;2023-05-08T11:46:19;98254.28;;;16.97;30.48
72038;BME280;59900;50.788;12.904;2023-05-08T11:48:45;98246.41;;;16.90;30.43
72038;BME280;59900;50.788;12.904;2023-05-08T11:51:11;98251.47;;;16.92;31.83
72038;BME280;59900;50.788;12.904;2023-05-08T11:53:38;98249.59;;;16.99;31.87
72038;BME280;59900;50.788;12.904;2023-05-08T11:56:04;98246.53;;;16.95;31.62
72038;BME280;59900;50.788;12.904;2023-05-08T11:58:29;98246.88;;;17.05;31.47
72038;BME280;59900;50.788;12.904;2023-05-08T12:00:55;98249.81;;;17.15;31.77
72038;BME280;59900;50.788;12.904;2023-05-08T12:03:22;98244.97;;;17.30;32.25
72038;BME280;59900;50.788;12.904;2023-05-08T12:05:49;98247.81;;;17.47;32.99
72038;BME280;59900;50.788;12.904;2023-05-08T12:08:16;98247.13;;;17.58;32.31
72038;BME280;59900;50.788;12.904;2023-05-08T12:15:43;98237.22;;;17.65;30.35
72038;BME280;59900;50.788;12.904;2023-05-08T12:18:08;98232.13;;;17.64;30.69
72038;BME280;59900;50.788;12.904;2023-05-08T12:20:33;98244.66;;;17.75;29.88
72038;BME280;59900;50.788;12.904;2023-05-08T12:23:01;98234.63;;;17.59;27.85
72038;BME280;59900;50.788;12.904;2023-05-08T12:25:27;98248.28;;;17.62;28.11
72038;BME280;59900;50.788;12.904;2023-05-08T12:27:52;98251.19;;;17.61;27.86
72038;BME280;59900;50.788;12.904;2023-05-08T12:30:18;98247.31;;;17.75;29.78
72038;BME280;59900;50.788;12.904;2023-05-08T12:32:44;98244.00;;;18.09;29.98
72038;BME280;59900;50.788;12.904;2023-05-08T12:35:11;98239.94;;;18.48;29.20
72038;BME280;59900;50.788;12.904;2023-05-08T12:37:36;98234.78;;;18.76;29.11
72038;BME280;59900;50.788;12.904;2023-05-08T12:40:03;98238.97;;;19.07;28.88
72038;BME280;59900;50.788;12.904;2023-05-08T12:42:47;98236.63;;;19.45;28.55
72038;BME280;59900;50.788;12.904;2023-05-08T12:45:24;98237.13;;;19.71;28.16
72038;BME280;59900;50.788;12.904;2023-05-08T12:47:51;98233.84;;;20.08;28.03
72038;BME280;59900;50.788;12.904;2023-05-08T12:50:18;98236.13;;;20.45;26.21
72038;BME280;59900;50.788;12.904;2023-05-08T12:52:45;98231.84;;;20.60;25.86
72038;BME280;59900;50.788;12.904;2023-05-08T12:55:26;98242.91;;;20.86;25.56
72038;BME280;59900;50.788;12.904;2023-05-08T13:00:34;98235.94;;;21.18;25.69
72038;BME280;59900;50.788;12.904;2023-05-08T13:03:00;98231.84;;;21.54;26.52
72038;BME280;59900;50.788;12.904;2023-05-08T13:05:26;98233.22;;;21.78;25.34
72038;BME280;59900;50.788;12.904;2023-05-08T13:07:51;98232.59;;;22.19;25.96
72038;BME280;59900;50.788;12.904;2023-05-08T13:10:17;98227.97;;;22.37;23.75
72038;BME280;59900;50.788;12.904;2023-05-08T13:12:45;98220.72;;;22.37;25.09
72038;BME280;59900;50.788;12.904;2023-05-08T13:15:10;98218.91;;;22.43;23.20
72038;BME280;59900;50.788;12.904;2023-05-08T13:17:36;98214.81;;;22.67;23.66
72038;BME280;59900;50.788;12.904;2023-05-08T13:20:01;98210.81;;;23.06;23.95
72038;BME280;59900;50.788;12.904;2023-05-08T13:22:28;98216.88;;;23.33;21.81
72038;BME280;59900;50.788;12.904;2023-05-08T13:24:53;98213.66;;;22.90;22.39
72038;BME280;59900;50.788;12.904;2023-05-08T13:27:19;98207.78;;;22.61;22.50
72038;BME280;59900;50.788;12.904;2023-05-08T13:29:44;98205.25;;;22.76;24.01
72038;BME280;59900;50.788;12.904;2023-05-08T13:32:09;98199.78;;;23.03;24.43
72038;BME280;59900;50.788;12.904;2023-05-08T13:34:34;98196.34;;;23.07;23.32